Branford, Connecticut
Current Conditions -  °F | °C
As of 9:53 AM on Tuesday 21 Oct 2014 (Local Time) from KHVN Reporting Station
Broken Clouds Broken Clouds  
Wind Chill: 58°   Ceiling: 15000
Heat Index: 58°   Visibility: 10mi
Dew Point: 48°   Wind: 5mph
Humidity: 70%   Direction: 360°N
Pressure: 29.93"   Gusts: NA
Location:  41.28°N, 72.82°W
Report Text: KHVN 211353Z 36004KT 10SM FEW050 BKN150 14/09 A2993 RMK AO2 SLP134 T01440089
Loading
Personal Weather Stations






























Interactive Weather Map
Tropical Storm Tracking
New forecast layout! Learn more

10-Day Weather Forecast

Advertisements
Track Severe Weather on mobile